createdAt,value
2022-11-29T00:01:02.982Z,47.35
2022-11-29T00:03:31.130Z,42.22
2022-11-29T00:06:04.559Z,45.10
2022-11-29T00:08:33.664Z,46.40
2022-11-29T00:11:05.278Z,45.05
2022-11-29T00:13:32.882Z,46.17
2022-11-29T00:16:04.133Z,47.53
2022-11-29T00:18:31.804Z,48.55
2022-11-29T00:20:59.468Z,45.65
2022-11-29T00:23:27.138Z,45.85
2022-11-29T00:25:56.091Z,49.95
2022-11-29T00:28:23.739Z,45.65
2022-11-29T00:30:51.360Z,46.50
2022-11-29T00:33:19.009Z,47.97
2022-11-29T00:35:46.631Z,81.28
2022-11-29T00:38:14.262Z,56.17
2022-11-29T00:40:41.893Z,48.15
2022-11-29T00:43:10.839Z,50.67
2022-11-29T00:45:38.527Z,47.53
2022-11-29T00:48:06.436Z,46.50
2022-11-29T00:50:34.079Z,49.47
2022-11-29T00:53:01.727Z,46.85
2022-11-29T00:55:29.384Z,42.35
2022-11-29T00:57:57.039Z,45.90
2022-11-29T01:00:26.071Z,53.35
2022-11-29T01:02:53.781Z,48.30
2022-11-29T01:05:21.432Z,45.22
2022-11-29T01:07:49.204Z,49.75
2022-11-29T01:10:17.008Z,47.83
2022-11-29T01:12:44.654Z,46.85
2022-11-29T01:15:12.637Z,48.75
2022-11-29T01:17:41.950Z,50.03
2022-11-29T01:20:12.711Z,46.63
2022-11-29T01:22:40.920Z,49.65
2022-11-29T01:25:10.312Z,50.00
2022-11-29T01:27:37.962Z,45.88
2022-11-29T01:30:06.673Z,48.05
2022-11-29T01:32:34.306Z,48.50
2022-11-29T01:35:03.351Z,49.72
2022-11-29T01:37:31.016Z,48.88
2022-11-29T01:39:58.682Z,52.00
2022-11-29T01:42:26.354Z,49.22
2022-11-29T01:45:20.926Z,48.28
2022-11-29T01:47:50.176Z,52.80
2022-11-29T01:50:19.888Z,53.15
2022-11-29T01:52:48.401Z,49.87
2022-11-29T01:55:17.178Z,48.47
2022-11-29T01:57:45.623Z,47.95
2022-11-29T02:00:16.487Z,48.53
2022-11-29T02:02:48.110Z,45.88
2022-11-29T02:05:19.765Z,50.72
2022-11-29T02:07:52.149Z,48.60
2022-11-29T02:10:21.189Z,48.88
2022-11-29T02:13:00.371Z,47.17
2022-11-29T02:15:43.586Z,44.40
2022-11-29T02:18:14.640Z,50.40
2022-11-29T02:21:18.134Z,53.22
2022-11-29T02:24:30.339Z,46.67
2022-11-29T02:27:17.288Z,50.05
2022-11-29T02:30:06.091Z,51.33
2022-11-29T02:33:03.768Z,51.35
2022-11-29T02:36:05.763Z,51.10
2022-11-29T02:38:49.350Z,49.78
2022-11-29T02:41:31.159Z,52.38
2022-11-29T02:44:35.076Z,52.80
2022-11-29T02:47:14.743Z,52.85
2022-11-29T02:50:00.515Z,51.27
2022-11-29T02:52:36.922Z,51.65
2022-11-29T02:55:10.613Z,48.47
2022-11-29T02:57:44.480Z,53.85
2022-11-29T03:00:16.837Z,54.97
2022-11-29T03:02:56.037Z,51.00
2022-11-29T03:05:33.469Z,51.85
2022-11-29T03:08:11.235Z,51.00
2022-11-29T03:10:44.387Z,50.55
2022-11-29T03:13:21.146Z,51.42
2022-11-29T03:15:58.740Z,52.42
2022-11-29T03:18:35.507Z,52.63
2022-11-29T03:21:19.239Z,47.40
2022-11-29T03:23:49.578Z,49.75
2022-11-29T03:26:22.187Z,54.72
2022-11-29T03:28:56.159Z,50.92
2022-11-29T03:31:31.072Z,52.85
2022-11-29T03:34:07.119Z,49.72
2022-11-29T03:36:44.520Z,52.97
2022-11-29T03:39:18.464Z,54.25
2022-11-29T03:41:52.747Z,50.58
2022-11-29T03:44:26.215Z,49.40
2022-11-29T03:46:59.434Z,51.22
2022-11-29T03:49:33.253Z,51.72
2022-11-29T03:52:09.478Z,50.10
2022-11-29T03:54:49.430Z,49.35
2022-11-29T03:57:23.012Z,50.92
2022-11-29T04:00:02.618Z,47.35
2022-11-29T04:03:07.695Z,48.58
2022-11-29T04:06:05.002Z,50.08
2022-11-29T04:09:13.545Z,53.00
2022-11-29T04:12:05.298Z,51.70
2022-11-29T04:14:51.617Z,51.75
2022-11-29T04:17:52.493Z,51.40
2022-11-29T04:21:00.667Z,52.80
2022-11-29T04:23:49.680Z,48.03
2022-11-29T04:26:41.162Z,50.95
2022-11-29T04:29:36.634Z,54.75
2022-11-29T04:32:27.695Z,50.15
2022-11-29T04:35:08.051Z,52.30
2022-11-29T04:37:57.407Z,54.92
2022-11-29T04:40:48.403Z,47.40
2022-11-29T04:44:00.387Z,54.25
2022-11-29T04:46:41.533Z,50.20
2022-11-29T04:49:41.274Z,49.97
2022-11-29T04:52:44.024Z,52.22
2022-11-29T04:55:29.410Z,50.65
2022-11-29T04:58:05.152Z,52.78
2022-11-29T05:00:40.275Z,53.75
2022-11-29T05:03:18.052Z,53.53
2022-11-29T05:05:53.702Z,47.85
2022-11-29T05:08:34.147Z,49.67
2022-11-29T05:11:11.656Z,49.42
2022-11-29T05:13:46.828Z,49.25
2022-11-29T05:16:27.305Z,51.88
2022-11-29T05:21:49.671Z,49.58
2022-11-29T05:24:31.486Z,52.03
2022-11-29T05:27:08.986Z,50.13
2022-11-29T05:29:42.961Z,48.88
2022-11-29T05:32:25.235Z,50.63
2022-11-29T05:35:18.869Z,47.63
2022-11-29T05:37:52.643Z,47.75
2022-11-29T05:40:44.071Z,50.25
2022-11-29T05:43:39.229Z,48.10
2022-11-29T05:46:13.702Z,53.33
2022-11-29T05:48:48.582Z,48.55
2022-11-29T05:51:22.895Z,47.53
2022-11-29T05:54:14.071Z,52.90
2022-11-29T05:56:48.359Z,48.80
2022-11-29T05:59:20.290Z,50.78
2022-11-29T06:01:56.816Z,49.92
2022-11-29T06:04:32.783Z,53.78
2022-11-29T06:07:10.802Z,53.08
2022-11-29T06:09:48.218Z,47.83
2022-11-29T06:12:21.388Z,46.80
2022-11-29T06:15:17.138Z,49.78
2022-11-29T06:17:57.824Z,51.45
2022-11-29T06:20:46.367Z,47.47
2022-11-29T06:23:42.337Z,48.30
2022-11-29T06:26:40.761Z,48.78
2022-11-29T06:29:25.145Z,50.42
2022-11-29T06:31:57.220Z,49.55
2022-11-29T06:34:32.325Z,49.22
2022-11-29T06:37:06.631Z,47.75
2022-11-29T06:39:34.902Z,47.80
2022-11-29T06:42:03.898Z,49.63
2022-11-29T06:44:32.021Z,48.38
2022-11-29T06:47:07.059Z,48.97
2022-11-29T06:49:40.101Z,51.88
2022-11-29T06:52:21.142Z,55.25
2022-11-29T06:55:04.914Z,51.75
2022-11-29T06:57:44.338Z,47.47
2022-11-29T07:00:17.502Z,46.60
2022-11-29T07:03:16.797Z,51.78
2022-11-29T07:05:46.458Z,51.25
2022-11-29T07:08:18.633Z,45.07
2022-11-29T07:10:49.650Z,50.47
2022-11-29T07:13:19.970Z,47.28
2022-11-29T07:15:57.460Z,46.72
2022-11-29T07:18:35.095Z,52.60
2022-11-29T07:21:17.511Z,52.65
2022-11-29T07:23:55.684Z,47.63
2022-11-29T07:26:31.165Z,50.20
2022-11-29T07:29:19.364Z,55.25
2022-11-29T07:32:01.512Z,47.30
2022-11-29T07:34:38.797Z,49.03
2022-11-29T07:37:16.530Z,50.25
2022-11-29T07:39:54.453Z,53.33
2022-11-29T07:42:30.323Z,50.35
2022-11-29T07:45:08.674Z,49.35
2022-11-29T07:47:36.418Z,51.80
2022-11-29T07:50:04.751Z,46.28
2022-11-29T07:52:32.527Z,54.85
2022-11-29T07:55:00.215Z,50.55
2022-11-29T07:57:27.805Z,52.47
2022-11-29T07:59:55.482Z,55.53
2022-11-29T08:02:33.691Z,47.67
2022-11-29T08:05:02.034Z,59.75
2022-11-29T08:07:29.777Z,55.72
2022-11-29T08:09:57.472Z,46.70
2022-11-29T08:12:25.111Z,49.30
2022-11-29T08:14:52.785Z,49.50
2022-11-29T08:17:20.422Z,49.45
2022-11-29T08:19:49.476Z,50.90
2022-11-29T08:22:17.113Z,46.83
2022-11-29T08:24:45.052Z,51.78
2022-11-29T08:27:12.824Z,52.35
2022-11-29T08:29:40.459Z,46.15
2022-11-29T08:32:08.942Z,49.80
2022-11-29T08:34:36.567Z,47.90
2022-11-29T08:37:05.619Z,48.45
2022-11-29T08:39:33.234Z,46.63
2022-11-29T08:42:00.873Z,49.60
2022-11-29T08:44:28.555Z,48.38
2022-11-29T08:47:14.005Z,44.80
2022-11-29T08:50:01.144Z,49.47
2022-11-29T08:52:47.968Z,48.50
2022-11-29T08:55:15.759Z,45.67
2022-11-29T08:57:43.606Z,48.65
2022-11-29T09:00:12.561Z,50.65
2022-11-29T09:02:40.305Z,51.33
2022-11-29T09:05:09.306Z,53.70
2022-11-29T09:07:38.771Z,77.93
2022-11-29T09:10:08.792Z,67.32
2022-11-29T09:12:37.014Z,48.92
2022-11-29T09:15:05.795Z,49.40
2022-11-29T09:17:33.445Z,49.22
2022-11-29T09:20:01.104Z,59.22
2022-11-29T09:22:28.760Z,71.18
2022-11-29T09:24:57.744Z,47.92
2022-11-29T09:27:25.374Z,48.22
2022-11-29T09:29:53.027Z,46.15
2022-11-29T09:32:20.668Z,44.25
2022-11-29T09:34:48.481Z,49.80
2022-11-29T09:37:16.328Z,48.60
2022-11-29T09:39:43.939Z,52.70
2022-11-29T09:42:37.728Z,49.47
2022-11-29T09:45:11.777Z,51.22
2022-11-29T09:47:58.446Z,50.38
2022-11-29T09:50:33.195Z,50.22
2022-11-29T09:53:23.877Z,49.83
2022-11-29T09:58:30.835Z,51.17
2022-11-29T10:01:03.754Z,46.70
2022-11-29T10:03:36.148Z,89.53
2022-11-29T10:06:10.300Z,65.63
2022-11-29T10:08:41.836Z,50.47
2022-11-29T10:11:19.527Z,46.90
2022-11-29T10:13:53.114Z,50.05
2022-11-29T10:16:26.637Z,48.47
2022-11-29T10:19:02.395Z,51.78
2022-11-29T10:21:35.342Z,49.35
2022-11-29T10:24:06.279Z,47.90
2022-11-29T10:26:35.441Z,47.42
2022-11-29T10:29:04.966Z,55.65
2022-11-29T10:31:35.989Z,52.28
2022-11-29T10:34:12.819Z,54.33
2022-11-29T10:36:44.454Z,61.90
2022-11-29T10:39:17.567Z,60.83
2022-11-29T10:41:45.242Z,48.63
2022-11-29T10:44:16.006Z,51.33
2022-11-29T10:46:44.011Z,49.08
2022-11-29T10:49:15.992Z,49.40
2022-11-29T10:51:43.952Z,53.22
2022-11-29T10:54:26.922Z,49.63
2022-11-29T10:56:54.192Z,50.60
2022-11-29T10:59:26.902Z,45.28
2022-11-29T11:01:55.093Z,54.67
2022-11-29T11:04:30.161Z,86.35
2022-11-29T11:07:01.367Z,52.90
2022-11-29T11:09:36.619Z,49.33
2022-11-29T11:12:08.560Z,45.60
2022-11-29T11:14:39.261Z,50.25
2022-11-29T11:17:23.222Z,48.38
2022-11-29T11:19:57.670Z,47.47
2022-11-29T11:22:27.284Z,48.10
2022-11-29T11:25:01.270Z,46.67
2022-11-29T11:27:34.590Z,52.22
2022-11-29T11:30:08.535Z,53.13
2022-11-29T11:32:36.213Z,50.67
2022-11-29T11:35:03.926Z,52.78
2022-11-29T11:37:35.555Z,49.78
2022-11-29T11:40:20.800Z,51.72
2022-11-29T11:42:48.630Z,50.10
2022-11-29T11:45:34.213Z,55.10
2022-11-29T11:48:05.584Z,54.60
2022-11-29T11:50:35.930Z,52.92
2022-11-29T11:53:06.519Z,54.75
2022-11-29T11:58:10.688Z,54.47
2022-11-29T12:03:40.722Z,54.67
2022-11-29T12:06:25.692Z,52.78
2022-11-29T12:09:00.274Z,54.67
2022-11-29T12:11:32.737Z,51.45
2022-11-29T12:14:02.991Z,84.82
2022-11-29T12:16:36.548Z,73.85
2022-11-29T12:19:13.117Z,56.28
2022-11-29T12:21:44.610Z,50.55
2022-11-29T12:24:22.123Z,52.90
2022-11-29T12:26:58.630Z,48.60
2022-11-29T12:29:32.024Z,52.55
2022-11-29T12:32:19.207Z,65.47
2022-11-29T12:35:08.104Z,58.20
2022-11-29T12:37:44.136Z,50.88
2022-11-29T12:40:23.299Z,56.20
2022-11-29T12:42:58.432Z,56.22
2022-11-29T12:45:36.423Z,51.15
2022-11-29T12:48:16.227Z,57.25
2022-11-29T12:50:55.074Z,56.40
2022-11-29T12:53:33.873Z,54.28
2022-11-29T12:56:13.735Z,51.40
2022-11-29T12:58:54.606Z,54.15
2022-11-29T13:01:30.993Z,54.10
2022-11-29T13:04:12.302Z,58.20
2022-11-29T13:06:46.470Z,55.08
2022-11-29T13:09:39.513Z,58.08
2022-11-29T13:12:14.615Z,54.42
2022-11-29T13:14:50.115Z,59.08
2022-11-29T13:17:28.770Z,57.58
2022-11-29T13:20:03.237Z,55.25
2022-11-29T13:22:40.247Z,56.75
2022-11-29T13:25:18.155Z,52.97
2022-11-29T13:27:58.301Z,55.67
2022-11-29T13:30:26.622Z,60.97
2022-11-29T13:33:01.588Z,56.80
2022-11-29T13:35:37.325Z,56.15
2022-11-29T13:38:11.437Z,57.72
2022-11-29T13:40:55.415Z,58.00
2022-11-29T13:43:30.609Z,53.45
2022-11-29T13:46:06.447Z,52.47
2022-11-29T13:48:46.659Z,59.13
2022-11-29T13:51:41.078Z,55.15
2022-11-29T13:54:27.650Z,55.70
2022-11-29T13:57:03.643Z,55.33
2022-11-29T13:59:33.644Z,58.25
2022-11-29T14:02:01.882Z,57.47
2022-11-29T14:04:33.709Z,55.97
2022-11-29T14:07:10.029Z,53.20
2022-11-29T14:09:45.488Z,56.05
2022-11-29T14:12:28.660Z,53.60
2022-11-29T14:14:59.522Z,55.85
2022-11-29T14:17:36.575Z,56.90
2022-11-29T14:20:52.979Z,57.13
2022-11-29T14:23:37.260Z,57.25
2022-11-29T14:26:32.018Z,55.50
2022-11-29T14:29:00.234Z,55.08
2022-11-29T14:31:50.365Z,55.80
2022-11-29T14:34:47.825Z,55.72
2022-11-29T14:37:31.759Z,53.67
2022-11-29T14:40:11.589Z,56.85
2022-11-29T14:42:47.229Z,54.22
2022-11-29T14:45:23.808Z,55.30
2022-11-29T14:47:51.626Z,56.03
2022-11-29T14:50:32.017Z,53.58
2022-11-29T14:53:00.248Z,53.70
2022-11-29T14:55:35.498Z,53.20
2022-11-29T14:58:17.239Z,51.33
2022-11-29T15:00:56.474Z,54.70
2022-11-29T15:03:32.465Z,48.97
2022-11-29T15:06:02.194Z,52.65
2022-11-29T15:08:35.811Z,53.40
2022-11-29T15:11:12.427Z,54.03
2022-11-29T15:13:49.843Z,53.05
2022-11-29T15:16:29.786Z,53.83
2022-11-29T15:19:17.351Z,50.65
2022-11-29T15:21:55.959Z,50.10
2022-11-29T15:24:28.254Z,52.70
2022-11-29T15:26:58.811Z,56.05
2022-11-29T15:29:27.770Z,53.67
2022-11-29T15:31:58.041Z,58.70
2022-11-29T15:34:32.299Z,52.00
2022-11-29T15:37:00.632Z,50.22
2022-11-29T15:39:31.324Z,54.70
2022-11-29T15:42:05.821Z,54.95
2022-11-29T15:44:33.809Z,56.80
2022-11-29T15:47:21.931Z,53.85
2022-11-29T15:49:49.872Z,53.47
2022-11-29T15:52:24.711Z,80.25
2022-11-29T15:54:56.231Z,60.53
2022-11-29T15:57:28.493Z,54.03
2022-11-29T15:59:59.012Z,52.88
2022-11-29T16:04:59.564Z,55.42
2022-11-29T16:07:32.097Z,53.47
2022-11-29T16:10:04.523Z,50.97
2022-11-29T16:12:33.536Z,56.95
2022-11-29T16:15:02.292Z,55.33
2022-11-29T16:17:31.720Z,52.65
2022-11-29T16:20:23.295Z,56.53
2022-11-29T16:23:04.434Z,54.40
2022-11-29T16:25:37.633Z,57.60
2022-11-29T16:28:13.242Z,51.70
2022-11-29T16:30:43.133Z,56.13
2022-11-29T16:33:21.188Z,63.25
2022-11-29T16:35:49.120Z,55.92
2022-11-29T16:38:20.795Z,62.13
2022-11-29T16:41:02.460Z,55.95
2022-11-29T16:43:56.138Z,58.08
2022-11-29T16:46:30.299Z,54.35
2022-11-29T16:49:00.753Z,56.65
2022-11-29T16:51:37.300Z,61.63
2022-11-29T16:54:21.397Z,60.38
2022-11-29T16:56:49.542Z,59.35
2022-11-29T16:59:27.650Z,57.47
2022-11-29T17:01:56.739Z,61.65
2022-11-29T17:04:25.195Z,56.78
2022-11-29T17:06:53.836Z,55.00
2022-11-29T17:09:25.992Z,56.67
2022-11-29T17:11:54.179Z,63.15
2022-11-29T17:14:23.631Z,67.10
2022-11-29T17:16:52.033Z,55.70
2022-11-29T17:19:22.040Z,59.28
2022-11-29T17:21:49.703Z,60.20
2022-11-29T17:24:19.345Z,59.13
2022-11-29T17:26:47.327Z,59.50
2022-11-29T17:29:16.155Z,61.90
2022-11-29T17:31:46.165Z,59.65
2022-11-29T17:34:14.193Z,61.30
2022-11-29T17:36:45.022Z,58.67
2022-11-29T17:39:13.550Z,57.70
2022-11-29T17:41:41.165Z,61.15
2022-11-29T17:44:09.457Z,63.83
2022-11-29T17:46:38.000Z,61.53
2022-11-29T17:49:08.928Z,65.03
2022-11-29T17:51:55.139Z,62.05
2022-11-29T17:54:23.633Z,60.90
2022-11-29T17:56:51.802Z,62.10
2022-11-29T17:59:20.300Z,62.40
2022-11-29T18:01:48.105Z,64.32
2022-11-29T18:04:17.353Z,62.70
2022-11-29T18:06:49.338Z,64.32
2022-11-29T18:09:17.565Z,59.75
2022-11-29T18:11:48.997Z,62.17
2022-11-29T18:14:19.733Z,61.65
2022-11-29T18:16:47.498Z,59.78
2022-11-29T18:19:18.800Z,64.50
2022-11-29T18:21:46.857Z,61.80
2022-11-29T18:24:15.056Z,87.70
2022-11-29T18:26:43.288Z,70.00
2022-11-29T18:29:11.693Z,61.65
2022-11-29T18:31:41.812Z,65.28
2022-11-29T18:34:11.334Z,62.65
2022-11-29T18:36:42.824Z,63.05
2022-11-29T18:39:13.811Z,63.67
2022-11-29T18:41:43.201Z,62.30
2022-11-29T18:44:12.694Z,67.25
2022-11-29T18:46:42.895Z,65.07
2022-11-29T18:49:12.686Z,65.97
2022-11-29T18:51:44.294Z,66.07
2022-11-29T18:54:12.489Z,63.53
2022-11-29T18:56:40.420Z,62.65
2022-11-29T18:59:10.230Z,60.78
2022-11-29T19:01:41.064Z,66.65
2022-11-29T19:04:10.639Z,64.50
2022-11-29T19:06:40.049Z,63.78
2022-11-29T19:09:13.121Z,67.97
2022-11-29T19:11:41.030Z,67.47
2022-11-29T19:14:11.310Z,65.18
2022-11-29T19:19:08.551Z,68.07
2022-11-29T19:21:36.828Z,64.72
2022-11-29T19:24:07.543Z,64.32
2022-11-29T19:26:36.623Z,65.68
2022-11-29T19:29:04.305Z,62.75
2022-11-29T19:31:32.319Z,62.67
2022-11-29T19:33:59.973Z,61.20
2022-11-29T19:36:29.310Z,66.50
2022-11-29T19:38:57.659Z,67.55
2022-11-29T19:41:27.219Z,72.28
2022-11-29T19:43:58.017Z,63.55
2022-11-29T19:46:27.658Z,65.10
2022-11-29T19:48:56.743Z,67.50
2022-11-29T19:51:25.295Z,69.78
2022-11-29T19:53:54.095Z,67.65
2022-11-29T19:56:22.411Z,66.72
2022-11-29T19:58:50.829Z,66.85
2022-11-29T20:01:22.466Z,83.32
2022-11-29T20:03:50.176Z,103.25
2022-11-29T20:06:18.383Z,72.05
2022-11-29T20:08:46.420Z,66.72
2022-11-29T20:11:16.395Z,70.05
2022-11-29T20:13:46.642Z,67.20
2022-11-29T20:16:16.958Z,67.60
2022-11-29T20:18:51.198Z,62.70
2022-11-29T20:21:20.968Z,73.88
2022-11-29T20:23:49.062Z,66.43
2022-11-29T20:26:19.979Z,68.03
2022-11-29T20:28:48.424Z,67.30
2022-11-29T20:31:18.156Z,66.68
2022-11-29T20:33:48.090Z,71.13
2022-11-29T20:36:33.829Z,71.93
2022-11-29T20:39:08.002Z,68.57
2022-11-29T20:41:42.583Z,73.50
2022-11-29T20:44:15.282Z,70.90
2022-11-29T20:46:43.275Z,71.47
2022-11-29T20:49:13.975Z,69.90
2022-11-29T20:51:48.400Z,68.35
2022-11-29T20:54:17.214Z,67.07
2022-11-29T20:56:44.872Z,68.90
2022-11-29T20:59:12.542Z,68.43
2022-11-29T21:01:40.380Z,69.78
2022-11-29T21:04:08.077Z,75.47
2022-11-29T21:06:39.569Z,95.80
2022-11-29T21:09:08.687Z,72.55
2022-11-29T21:11:36.839Z,71.38
2022-11-29T21:14:05.800Z,68.82
2022-11-29T21:16:33.925Z,69.50
2022-11-29T21:19:03.544Z,73.68
2022-11-29T21:21:37.235Z,65.05
2022-11-29T21:24:22.315Z,75.20
2022-11-29T21:26:52.497Z,70.93
2022-11-29T21:29:21.891Z,74.47
2022-11-29T21:31:51.626Z,69.65
2022-11-29T21:34:19.510Z,70.30
2022-11-29T21:36:51.264Z,68.97
2022-11-29T21:39:20.278Z,71.47
2022-11-29T21:41:48.024Z,72.55
2022-11-29T21:44:15.981Z,71.78
2022-11-29T21:46:43.676Z,68.30
2022-11-29T21:49:11.324Z,72.60
2022-11-29T21:51:38.983Z,77.22
2022-11-29T21:54:06.721Z,74.10
2022-11-29T21:56:35.772Z,79.53
2022-11-29T21:59:03.399Z,73.03
2022-11-29T22:01:31.096Z,63.65
2022-11-29T22:03:58.812Z,70.47
2022-11-29T22:06:29.139Z,127.97
2022-11-29T22:08:56.924Z,102.13
2022-11-29T22:11:31.774Z,74.10
2022-11-29T22:14:18.227Z,74.93
2022-11-29T22:16:48.288Z,79.28
2022-11-29T22:19:17.557Z,76.30
2022-11-29T22:21:47.231Z,73.28
2022-11-29T22:24:17.502Z,73.13
2022-11-29T22:26:45.714Z,72.80
2022-11-29T22:29:15.340Z,77.43
2022-11-29T22:31:44.422Z,78.97
2022-11-29T22:34:12.564Z,76.97
2022-11-29T22:36:41.063Z,78.20
2022-11-29T22:39:09.608Z,76.68
2022-11-29T22:41:39.341Z,72.50
2022-11-29T22:44:07.259Z,77.77
2022-11-29T22:46:36.846Z,74.05
2022-11-29T22:49:05.095Z,76.72
2022-11-29T22:51:34.663Z,78.88
2022-11-29T22:54:04.550Z,76.85
2022-11-29T22:56:33.993Z,76.68
2022-11-29T22:59:01.676Z,71.95
2022-11-29T23:01:30.832Z,74.47
2022-11-29T23:04:03.801Z,72.53
2022-11-29T23:06:33.006Z,75.63
2022-11-29T23:09:07.772Z,77.80
2022-11-29T23:11:35.465Z,76.93
2022-11-29T23:14:03.127Z,77.10
2022-11-29T23:16:32.676Z,78.70
2022-11-29T23:19:02.150Z,91.60
2022-11-29T23:21:31.983Z,97.50
2022-11-29T23:24:01.470Z,77.13
2022-11-29T23:26:31.739Z,74.57
2022-11-29T23:28:59.590Z,77.40
2022-11-29T23:31:27.250Z,73.80
2022-11-29T23:33:55.165Z,73.47
2022-11-29T23:36:24.170Z,74.28
2022-11-29T23:38:52.420Z,80.18
2022-11-29T23:41:20.090Z,73.85
2022-11-29T23:43:47.705Z,69.88
2022-11-29T23:46:17.703Z,72.78
2022-11-29T23:48:46.197Z,74.57
2022-11-29T23:51:14.503Z,74.22
2022-11-29T23:53:43.862Z,80.63
2022-11-29T23:56:14.027Z,74.03
2022-11-29T23:58:42.211Z,68.50
